Time;durP1;ratioP1;P1;durP2;ratioP2;P2;SDS_P1;SDS_P2;PMS_P1;PMS_P2;Temp;Humidity;BMP_temperature;BMP_pressure;BME280_temperature;BME280_humidity;BME280_pressure;Samples;Min_cycle;Max_cycle;Signal;HPM_P1;HPM_P2
2023/03/22 00:00:29;;;;;;;126.27;59.00;;;;;;;;;;6263495;28;20053;-62
2023/03/22 00:03:51;;;;;;;127.63;63.17;;;;;;;;;;6262348;28;20045;-63
2023/03/22 00:06:51;;;;;;;131.17;62.93;;;;;;;;;;6265860;28;20082;-63
2023/03/22 00:09:52;;;;;;;144.55;66.72;;;;;;;;;;6228112;28;1070724;-61
2023/03/22 00:12:52;;;;;;;137.48;67.47;;;;;;;;;;6263369;28;20040;-63
2023/03/22 00:15:54;;;;;;;139.52;71.10;;;;;;;;;;6260891;28;20049;-62
2023/03/22 00:18:55;;;;;;;140.20;64.17;;;;;;;;;;6261703;28;20455;-63
2023/03/22 00:21:55;;;;;;;136.65;63.63;;;;;;;;;;6261489;28;20081;-62
2023/03/22 00:24:56;;;;;;;134.15;65.78;;;;;;;;;;6264107;28;20477;-61
2023/03/22 00:27:56;;;;;;;124.97;58.92;;;;;;;;;;6264893;28;20422;-62
2023/03/22 00:30:59;;;;;;;130.45;64.35;;;;;;;;;;6263711;28;20045;-62
2023/03/22 00:34:00;;;;;;;131.43;64.03;;;;;;;;;;6266570;28;20053;-62
2023/03/22 00:37:00;;;;;;;126.22;58.60;;;;;;;;;;6267059;28;20492;-62
2023/03/22 00:40:03;;;;;;;125.63;60.60;;;;;;;;;;6262622;28;20496;-62
2023/03/22 00:43:04;;;;;;;129.85;62.70;;;;;;;;;;6266725;28;20055;-62
2023/03/22 00:46:05;;;;;;;131.50;61.42;;;;;;;;;;6262787;28;20521;-62
2023/03/22 00:49:05;;;;;;;125.57;59.85;;;;;;;;;;6266409;28;20095;-63
2023/03/22 00:52:06;;;;;;;131.65;61.95;;;;;;;;;;6262530;28;20425;-62
2023/03/22 00:55:07;;;;;;;134.05;63.22;;;;;;;;;;6263857;28;20518;-62
2023/03/22 00:58:07;;;;;;;131.23;61.05;;;;;;;;;;6260140;28;20049;-62
2023/03/22 01:01:08;;;;;;;131.00;60.00;;;;;;;;;;6261593;28;20049;-63
2023/03/22 01:04:14;;;;;;;128.50;59.63;;;;;;;;;;6264170;28;20094;-62
2023/03/22 01:07:20;;;;;;;135.40;62.85;;;;;;;;;;6264382;28;20511;-62
2023/03/22 01:10:21;;;;;;;150.07;71.75;;;;;;;;;;6261452;28;20148;-63
2023/03/22 01:13:21;;;;;;;111.80;53.10;;;;;;;;;;6263867;28;20037;-63
2023/03/22 01:16:22;;;;;;;132.95;57.08;;;;;;;;;;6265866;28;20056;-62
2023/03/22 01:19:23;;;;;;;226.30;66.13;;;;;;;;;;6267478;28;20041;-63
2023/03/22 01:22:24;;;;;;;119.68;56.17;;;;;;;;;;6263374;28;20047;-63
2023/03/22 01:25:24;;;;;;;120.63;57.05;;;;;;;;;;6263225;28;20836;-62
2023/03/22 01:28:25;;;;;;;129.15;60.40;;;;;;;;;;6266275;28;20055;-63
2023/03/22 01:31:25;;;;;;;146.88;67.90;;;;;;;;;;6258061;28;20447;-62
2023/03/22 01:34:26;;;;;;;164.82;64.07;;;;;;;;;;6265198;28;20506;-62
2023/03/22 01:37:27;;;;;;;203.75;60.53;;;;;;;;;;6261495;28;20045;-63
2023/03/22 01:40:27;;;;;;;199.82;58.53;;;;;;;;;;6266672;28;20041;-63
2023/03/22 01:43:28;;;;;;;121.00;55.25;;;;;;;;;;6262582;28;20052;-62
2023/03/22 01:46:29;;;;;;;128.77;60.13;;;;;;;;;;6262713;28;20495;-62
2023/03/22 01:49:33;;;;;;;124.50;57.22;;;;;;;;;;6262066;28;20538;-62
2023/03/22 01:52:36;;;;;;;299.25;57.78;;;;;;;;;;6259189;28;20056;-62
2023/03/22 01:55:37;;;;;;;450.70;58.50;;;;;;;;;;6260437;28;20208;-62
2023/03/22 01:58:39;;;;;;;220.40;54.25;;;;;;;;;;6261846;28;20135;-62
2023/03/22 02:01:41;;;;;;;360.98;59.35;;;;;;;;;;6263190;28;20458;-62
2023/03/22 02:04:42;;;;;;;548.53;66.63;;;;;;;;;;6262736;28;20124;-63
2023/03/22 02:07:44;;;;;;;532.67;68.22;;;;;;;;;;6259681;28;20298;-62
2023/03/22 02:10:45;;;;;;;425.90;63.78;;;;;;;;;;6260282;28;20063;-62
2023/03/22 02:14:02;;;;;;;442.08;62.67;;;;;;;;;;6265304;28;20053;-62
2023/03/22 02:17:11;;;;;;;212.75;55.10;;;;;;;;;;6262246;28;20190;-62
2023/03/22 02:20:40;;;;;;;177.68;54.50;;;;;;;;;;6260923;28;20488;-63
2023/03/22 02:24:05;;;;;;;166.95;53.00;;;;;;;;;;6261235;28;20045;-62
2023/03/22 02:27:44;;;;;;;142.60;49.15;;;;;;;;;;6260012;28;20139;-63
2023/03/22 02:30:44;;;;;;;238.88;53.15;;;;;;;;;;6220759;28;20055;-63
2023/03/22 02:33:51;;;;;;;412.00;54.58;;;;;;;;;;6261775;28;20586;-62
2023/03/22 02:37:22;;;;;;;184.05;49.88;;;;;;;;;;6259240;28;20412;-63
2023/03/22 02:40:47;;;;;;;145.02;46.63;;;;;;;;;;6259017;28;20052;-62
2023/03/22 02:43:57;;;;;;;227.27;52.00;;;;;;;;;;6261144;28;20541;-63
2023/03/22 02:47:03;;;;;;;235.07;55.75;;;;;;;;;;6263251;28;20130;-62
2023/03/22 02:50:21;;;;;;;306.95;59.10;;;;;;;;;;6264316;28;20053;-63
2023/03/22 02:53:23;;;;;;;324.00;59.65;;;;;;;;;;6265301;28;20049;-62
2023/03/22 02:56:32;;;;;;;318.50;53.45;;;;;;;;;;6261498;28;20090;-63
2023/03/22 02:59:37;;;;;;;335.75;54.25;;;;;;;;;;6261061;28;20056;-63
2023/03/22 03:02:47;;;;;;;313.40;53.10;;;;;;;;;;6257940;28;20063;-63
2023/03/22 03:05:53;;;;;;;311.45;58.83;;;;;;;;;;6266149;28;20044;-63
2023/03/22 03:08:56;;;;;;;321.13;57.67;;;;;;;;;;6264349;28;20767;-63
2023/03/22 03:11:57;;;;;;;285.38;53.22;;;;;;;;;;6261462;28;20053;-63
2023/03/22 03:14:58;;;;;;;282.27;53.85;;;;;;;;;;6259974;28;20492;-63
2023/03/22 03:18:14;;;;;;;230.23;50.10;;;;;;;;;;6262037;28;20520;-62
2023/03/22 03:21:44;;;;;;;257.25;52.30;;;;;;;;;;6266968;28;20136;-62
2023/03/22 03:24:56;;;;;;;262.95;50.35;;;;;;;;;;6260574;28;20140;-63
2023/03/22 03:28:21;;;;;;;253.05;48.63;;;;;;;;;;6258518;28;20049;-62
2023/03/22 03:31:42;;;;;;;241.05;47.45;;;;;;;;;;6259447;28;20041;-63
2023/03/22 03:34:56;;;;;;;217.07;47.40;;;;;;;;;;6264473;28;20041;-63
2023/03/22 03:38:02;;;;;;;176.27;46.00;;;;;;;;;;6261837;28;20065;-62
2023/03/22 03:41:08;;;;;;;191.18;46.92;;;;;;;;;;6259090;28;20045;-63
2023/03/22 03:44:09;;;;;;;176.35;45.65;;;;;;;;;;6259963;28;20060;-62
2023/03/22 03:47:11;;;;;;;167.63;43.15;;;;;;;;;;6257737;28;20041;-62
2023/03/22 03:50:14;;;;;;;178.85;43.20;;;;;;;;;;6255515;28;20053;-63
2023/03/22 03:53:15;;;;;;;124.10;42.30;;;;;;;;;;6261266;28;20048;-63
2023/03/22 03:56:16;;;;;;;130.40;43.50;;;;;;;;;;6261637;28;20045;-63
2023/03/22 03:59:17;;;;;;;138.30;45.22;;;;;;;;;;6262421;28;20059;-63
2023/03/22 04:02:18;;;;;;;187.50;47.30;;;;;;;;;;6260463;28;20476;-63
2023/03/22 04:05:19;;;;;;;196.07;46.55;;;;;;;;;;6257116;28;20308;-62
2023/03/22 04:08:19;;;;;;;198.02;46.97;;;;;;;;;;6260049;28;20056;-63
2023/03/22 04:11:20;;;;;;;166.05;46.58;;;;;;;;;;6258934;28;20044;-62
2023/03/22 04:14:21;;;;;;;174.52;46.67;;;;;;;;;;6241391;28;20052;-62
2023/03/22 04:17:22;;;;;;;172.27;44.90;;;;;;;;;;6261931;28;20041;-63
2023/03/22 04:20:25;;;;;;;138.10;44.40;;;;;;;;;;6256487;28;20415;-62
2023/03/22 04:23:26;;;;;;;170.13;45.00;;;;;;;;;;6260033;28;20857;-62
2023/03/22 04:26:26;;;;;;;120.60;42.95;;;;;;;;;;6257484;28;20045;-62
2023/03/22 04:29:31;;;;;;;135.98;46.35;;;;;;;;;;6264872;28;20085;-62
2023/03/22 04:32:31;;;;;;;135.57;43.53;;;;;;;;;;6261529;28;20143;-62
2023/03/22 04:35:33;;;;;;;113.20;42.90;;;;;;;;;;6263141;28;20509;-63
2023/03/22 04:38:34;;;;;;;140.57;42.22;;;;;;;;;;6258889;28;20468;-63
2023/03/22 04:41:35;;;;;;;133.07;41.97;;;;;;;;;;6259437;28;20037;-62
2023/03/22 04:44:36;;;;;;;118.93;43.20;;;;;;;;;;6263653;28;20084;-62
2023/03/22 04:47:37;;;;;;;118.53;44.25;;;;;;;;;;6260846;28;20052;-63
2023/03/22 04:50:41;;;;;;;119.95;43.03;;;;;;;;;;6258607;28;20114;-63
2023/03/22 04:53:42;;;;;;;131.50;44.20;;;;;;;;;;6257051;28;20172;-62
2023/03/22 04:56:42;;;;;;;109.47;43.72;;;;;;;;;;6259247;28;20052;-63
2023/03/22 04:59:43;;;;;;;127.30;44.13;;;;;;;;;;6257834;28;20473;-63
2023/03/22 05:02:44;;;;;;;147.48;43.78;;;;;;;;;;6258234;28;20041;-62
2023/03/22 05:05:49;;;;;;;103.60;40.67;;;;;;;;;;6258950;28;20084;-63
2023/03/22 05:08:50;;;;;;;103.38;41.22;;;;;;;;;;6263834;28;20163;-63
2023/03/22 05:11:50;;;;;;;106.05;42.30;;;;;;;;;;6257958;28;20041;-63
2023/03/22 05:14:51;;;;;;;93.82;40.10;;;;;;;;;;6259255;28;20060;-63
2023/03/22 05:17:52;;;;;;;111.80;42.55;;;;;;;;;;6258978;28;20133;-62
2023/03/22 05:20:56;;;;;;;111.65;42.90;;;;;;;;;;6253176;28;20041;-62
2023/03/22 05:23:57;;;;;;;94.82;39.97;;;;;;;;;;6259160;28;20499;-62
2023/03/22 05:26:59;;;;;;;87.50;39.67;;;;;;;;;;6263107;28;20053;-62
2023/03/22 05:30:01;;;;;;;79.53;34.60;;;;;;;;;;6267651;28;20070;-63
2023/03/22 05:33:03;;;;;;;79.78;37.15;;;;;;;;;;6263915;28;20080;-62
2023/03/22 05:36:04;;;;;;;101.60;45.28;;;;;;;;;;6262777;28;20048;-63
2023/03/22 05:39:05;;;;;;;100.88;44.28;;;;;;;;;;6262148;28;20150;-63
2023/03/22 05:42:05;;;;;;;97.03;41.33;;;;;;;;;;6262812;28;20044;-63
2023/03/22 05:45:07;;;;;;;90.30;40.15;;;;;;;;;;6261060;28;20571;-63
2023/03/22 05:48:08;;;;;;;91.90;44.33;;;;;;;;;;6266335;28;20044;-63
2023/03/22 05:51:12;;;;;;;91.15;41.67;;;;;;;;;;6263929;28;20068;-63
2023/03/22 05:54:13;;;;;;;87.03;40.90;;;;;;;;;;6266190;28;20057;-63
2023/03/22 05:57:13;;;;;;;88.25;42.17;;;;;;;;;;6270379;28;20550;-62
2023/03/22 06:00:15;;;;;;;87.03;41.10;;;;;;;;;;6261558;28;20053;-62
2023/03/22 06:03:15;;;;;;;92.13;42.47;;;;;;;;;;6263078;28;20060;-62
2023/03/22 06:06:16;;;;;;;95.45;49.70;;;;;;;;;;6262912;28;20419;-62
2023/03/22 06:09:16;;;;;;;93.60;41.75;;;;;;;;;;6262107;28;20143;-62
2023/03/22 06:12:21;;;;;;;86.63;40.17;;;;;;;;;;6261637;28;20059;-62
2023/03/22 06:15:21;;;;;;;92.40;42.72;;;;;;;;;;6262332;28;20745;-62
2023/03/22 06:18:22;;;;;;;97.07;48.63;;;;;;;;;;6261839;28;20053;-62
2023/03/22 06:21:22;;;;;;;93.13;47.00;;;;;;;;;;6257650;28;20053;-62
2023/03/22 06:24:23;;;;;;;93.57;46.13;;;;;;;;;;6261345;28;20084;-62
2023/03/22 06:27:24;;;;;;;88.05;42.28;;;;;;;;;;6262381;28;20420;-62
2023/03/22 06:30:25;;;;;;;86.80;41.90;;;;;;;;;;6259210;28;20052;-62
2023/03/22 06:33:25;;;;;;;90.53;44.25;;;;;;;;;;6261773;28;20068;-62
2023/03/22 06:36:26;;;;;;;92.13;43.25;;;;;;;;;;6260499;28;20447;-62
2023/03/22 06:39:26;;;;;;;90.10;42.05;;;;;;;;;;6260941;28;20055;-62
2023/03/22 06:42:29;;;;;;;98.95;50.03;;;;;;;;;;6260405;28;20297;-62
2023/03/22 06:45:32;;;;;;;86.20;41.10;;;;;;;;;;6265037;28;20057;-62
2023/03/22 06:48:32;;;;;;;93.65;43.33;;;;;;;;;;6262737;28;20060;-62
2023/03/22 06:51:33;;;;;;;88.65;42.42;;;;;;;;;;6257981;28;20049;-62
2023/03/22 06:54:34;;;;;;;94.80;46.05;;;;;;;;;;6262463;28;20091;-62
2023/03/22 06:57:34;;;;;;;95.07;44.40;;;;;;;;;;6259404;28;20125;-62
2023/03/22 07:00:37;;;;;;;95.00;44.10;;;;;;;;;;6257636;28;20416;-62
2023/03/22 07:03:37;;;;;;;88.53;41.40;;;;;;;;;;6261900;28;20610;-62
2023/03/22 07:06:38;;;;;;;91.97;46.33;;;;;;;;;;6264611;28;20044;-62
2023/03/22 07:09:39;;;;;;;89.22;47.75;;;;;;;;;;6261247;28;20060;-61
2023/03/22 07:12:39;;;;;;;86.10;44.47;;;;;;;;;;6262754;28;20045;-63
2023/03/22 07:15:40;;;;;;;93.03;47.90;;;;;;;;;;6265660;28;20364;-63
2023/03/22 07:18:41;;;;;;;84.35;43.28;;;;;;;;;;6266561;28;20041;-63
2023/03/22 07:21:41;;;;;;;87.05;40.22;;;;;;;;;;6264333;28;20071;-62
2023/03/22 07:24:42;;;;;;;84.20;42.45;;;;;;;;;;6264766;28;20065;-62
2023/03/22 07:27:43;;;;;;;82.80;41.40;;;;;;;;;;6260936;28;20457;-62
2023/03/22 07:30:43;;;;;;;94.07;47.47;;;;;;;;;;6259305;28;20045;-62
2023/03/22 07:33:44;;;;;;;89.82;44.35;;;;;;;;;;6259787;28;20075;-61
2023/03/22 07:36:44;;;;;;;84.43;41.47;;;;;;;;;;6262505;28;20087;-59
2023/03/22 07:39:45;;;;;;;83.55;40.03;;;;;;;;;;6264550;28;20052;-62
2023/03/22 07:42:49;;;;;;;89.47;42.72;;;;;;;;;;6263133;28;20052;-62
2023/03/22 07:45:50;;;;;;;90.85;44.03;;;;;;;;;;6259678;28;20032;-62
2023/03/22 07:48:51;;;;;;;93.50;46.92;;;;;;;;;;6261099;28;20065;-62
2023/03/22 07:51:52;;;;;;;92.68;45.13;;;;;;;;;;6261045;28;20155;-62
2023/03/22 07:54:52;;;;;;;89.05;44.45;;;;;;;;;;6260770;28;20056;-62
2023/03/22 07:57:53;;;;;;;88.78;42.17;;;;;;;;;;6261081;28;20053;-62
2023/03/22 08:00:54;;;;;;;81.43;39.85;;;;;;;;;;6256871;28;20048;-61
2023/03/22 08:03:54;;;;;;;84.28;41.55;;;;;;;;;;6255776;28;20045;-62
2023/03/22 08:06:57;;;;;;;83.63;42.75;;;;;;;;;;6261736;28;20407;-61
2023/03/22 08:09:58;;;;;;;;;;;;;;;;;;6257102;28;20057;-62
2023/03/22 08:12:58;;;;;;;75.95;38.38;;;;;;;;;;6261130;28;19944;-61
2023/03/22 08:15:59;;;;;;;72.85;36.55;;;;;;;;;;6260488;28;20385;-61
2023/03/22 08:19:00;;;;;;;75.05;35.78;;;;;;;;;;6258946;28;20044;-62
2023/03/22 08:22:00;;;;;;;71.22;36.13;;;;;;;;;;6258820;28;20135;-62
2023/03/22 08:25:03;;;;;;;73.60;36.42;;;;;;;;;;6258467;28;20447;-61
2023/03/22 08:28:04;;;;;;;70.55;35.30;;;;;;;;;;6259140;28;20075;-62
2023/03/22 08:31:14;;;;;;;75.65;36.85;;;;;;;;;;6259154;28;20063;-61
2023/03/22 08:34:14;;;;;;;82.88;38.95;;;;;;;;;;6266209;28;20132;-61
2023/03/22 08:37:15;;;;;;;79.20;38.67;;;;;;;;;;6266864;28;20546;-62
2023/03/22 08:40:16;;;;;;;69.53;34.22;;;;;;;;;;6265516;28;20045;-62
2023/03/22 08:43:16;;;;;;;68.15;33.60;;;;;;;;;;6266388;28;20064;-62
2023/03/22 08:46:17;;;;;;;78.72;40.40;;;;;;;;;;6266918;28;20041;-61
2023/03/22 08:49:18;;;;;;;64.60;32.25;;;;;;;;;;6265476;28;20036;-62
2023/03/22 08:52:18;;;;;;;76.80;37.28;;;;;;;;;;6265658;28;20371;-61
2023/03/22 08:55:19;;;;;;;58.53;31.40;;;;;;;;;;6266022;28;20140;-62
2023/03/22 08:58:19;;;;;;;67.00;34.25;;;;;;;;;;6266801;28;20049;-62
2023/03/22 09:01:20;;;;;;;61.25;30.45;;;;;;;;;;6270830;28;20039;-62
2023/03/22 09:04:21;;;;;;;64.63;28.63;;;;;;;;;;6271011;28;20558;-61
2023/03/22 09:07:23;;;;;;;62.33;29.10;;;;;;;;;;6271274;28;20094;-62
2023/03/22 09:10:23;;;;;;;63.40;30.88;;;;;;;;;;6269415;28;20397;-62
2023/03/22 09:13:24;;;;;;;67.35;31.45;;;;;;;;;;6270123;28;20091;-62
2023/03/22 09:16:25;;;;;;;60.28;29.45;;;;;;;;;;6265042;28;20099;-62
2023/03/22 09:19:26;;;;;;;56.88;29.40;;;;;;;;;;6263486;28;20578;-63
2023/03/22 09:22:26;;;;;;;56.42;29.27;;;;;;;;;;6262312;28;20063;-62
2023/03/22 09:25:27;;;;;;;61.78;29.55;;;;;;;;;;6263479;28;20041;-62
2023/03/22 09:28:29;;;;;;;50.33;26.17;;;;;;;;;;6262345;28;20079;-62
2023/03/22 09:31:29;;;;;;;52.22;27.67;;;;;;;;;;6263641;28;20057;-62
2023/03/22 09:34:30;;;;;;;50.80;27.58;;;;;;;;;;6269157;28;20052;-62
2023/03/22 09:37:31;;;;;;;51.45;27.98;;;;;;;;;;6269579;28;20449;-62
2023/03/22 09:40:33;;;;;;;50.95;25.10;;;;;;;;;;6269237;28;20044;-62
2023/03/22 09:43:38;;;;;;;45.92;24.80;;;;;;;;;;6270753;28;20063;-62
2023/03/22 09:46:43;;;;;;;47.20;25.35;;;;;;;;;;6270861;28;20045;-61
2023/03/22 09:49:47;;;;;;;47.50;24.67;;;;;;;;;;6269019;28;20047;-61
2023/03/22 09:52:49;;;;;;;53.40;27.35;;;;;;;;;;6270026;28;20109;-61
2023/03/22 09:55:52;;;;;;;46.38;25.92;;;;;;;;;;6270783;28;20136;-62
2023/03/22 09:58:56;;;;;;;45.20;24.50;;;;;;;;;;6269960;28;20111;-62
2023/03/22 10:02:11;;;;;;;47.17;26.58;;;;;;;;;;6268548;28;20037;-61
2023/03/22 10:05:36;;;;;;;47.22;25.23;;;;;;;;;;6270350;28;20483;-62
2023/03/22 10:08:55;;;;;;;47.83;25.20;;;;;;;;;;6269123;28;20556;-62
2023/03/22 10:12:23;;;;;;;46.08;24.30;;;;;;;;;;6266046;28;20049;-62
2023/03/22 10:16:02;;;;;;;46.35;23.90;;;;;;;;;;6259468;28;20072;-62
2023/03/22 10:19:16;;;;;;;49.17;23.08;;;;;;;;;;6175661;28;20078;-62
2023/03/22 10:22:23;;;;;;;38.50;22.42;;;;;;;;;;6261087;28;20791;-62
2023/03/22 10:25:32;;;;;;;42.92;22.63;;;;;;;;;;6263337;28;20045;-62
2023/03/22 10:28:35;;;;;;;41.88;22.98;;;;;;;;;;6260694;28;20141;-62
2023/03/22 10:31:38;;;;;;;42.08;22.77;;;;;;;;;;6263095;28;20110;-63
2023/03/22 10:34:38;;;;;;;45.20;23.83;;;;;;;;;;6264602;28;20554;-63
2023/03/22 10:37:41;;;;;;;41.33;23.88;;;;;;;;;;6262058;28;20072;-62
2023/03/22 10:40:42;;;;;;;38.97;21.13;;;;;;;;;;6261038;28;20133;-62
2023/03/22 10:43:44;;;;;;;40.77;20.60;;;;;;;;;;6261647;28;20041;-62
2023/03/22 10:46:47;;;;;;;33.55;19.90;;;;;;;;;;6262732;28;20045;-62
2023/03/22 10:49:53;;;;;;;34.55;18.55;;;;;;;;;;6258854;28;20055;-62
2023/03/22 10:53:01;;;;;;;35.05;19.20;;;;;;;;;;6261455;28;20052;-63
2023/03/22 10:56:02;;;;;;;34.45;17.48;;;;;;;;;;6266326;28;20041;-62
2023/03/22 10:59:04;;;;;;;33.42;16.48;;;;;;;;;;6267211;28;20510;-61
2023/03/22 11:02:04;;;;;;;27.25;16.00;;;;;;;;;;6265771;28;20045;-62
2023/03/22 11:05:06;;;;;;;23.20;13.35;;;;;;;;;;6261481;28;20404;-62
2023/03/22 11:08:13;;;;;;;24.25;13.98;;;;;;;;;;6263340;28;20047;-63
2023/03/22 11:11:15;;;;;;;42.33;15.38;;;;;;;;;;6262339;28;20045;-62
2023/03/22 11:14:19;;;;;;;;;;;;;;;;;;6266935;28;20167;-62
2023/03/22 11:17:24;;;;;;;21.35;12.13;;;;;;;;;;6266801;28;19963;-62
2023/03/22 11:20:25;;;;;;;20.80;11.90;;;;;;;;;;6265531;28;20037;-62
2023/03/22 11:23:28;;;;;;;20.23;11.07;;;;;;;;;;6267158;28;20045;-62
2023/03/22 11:26:32;;;;;;;20.80;11.38;;;;;;;;;;6266068;28;20496;-62
2023/03/22 11:29:49;;;;;;;22.30;12.32;;;;;;;;;;6265079;28;20052;-62
2023/03/22 11:33:13;;;;;;;17.23;9.85;;;;;;;;;;6266782;28;20474;-62
2023/03/22 11:36:17;;;;;;;17.85;10.52;;;;;;;;;;6266998;28;20412;-62
2023/03/22 11:39:18;;;;;;;18.88;10.40;;;;;;;;;;6267240;28;20131;-63
2023/03/22 11:42:20;;;;;;;16.38;9.90;;;;;;;;;;6260227;28;20075;-62
2023/03/22 11:45:34;;;;;;;14.80;9.02;;;;;;;;;;6264832;28;20052;-62
2023/03/22 11:48:35;;;;;;;14.10;8.07;;;;;;;;;;6259787;28;20068;-62
2023/03/22 11:51:39;;;;;;;12.90;8.13;;;;;;;;;;6261928;28;20384;-62
2023/03/22 11:54:41;;;;;;;14.60;7.53;;;;;;;;;;6258979;28;20049;-61
2023/03/22 11:57:42;;;;;;;12.48;7.45;;;;;;;;;;6261020;28;20128;-62
2023/03/22 12:00:43;;;;;;;11.93;8.02;;;;;;;;;;6260106;28;20040;-62
2023/03/22 12:03:49;;;;;;;11.10;6.90;;;;;;;;;;6258738;28;20377;-62
2023/03/22 12:06:56;;;;;;;12.07;6.90;;;;;;;;;;6266781;28;20441;-61
2023/03/22 12:10:09;;;;;;;11.30;5.65;;;;;;;;;;6260433;28;20060;-61
2023/03/22 12:13:26;;;;;;;13.07;5.53;;;;;;;;;;6258908;28;20045;-62
2023/03/22 12:16:48;;;;;;;11.77;5.43;;;;;;;;;;6261871;28;20056;-62
2023/03/22 12:20:16;;;;;;;8.68;5.05;;;;;;;;;;6259491;28;20052;-61
2023/03/22 12:23:20;;;;;;;9.85;5.50;;;;;;;;;;6258885;28;20045;-62
2023/03/22 12:26:25;;;;;;;11.35;6.15;;;;;;;;;;6256117;28;20049;-62
2023/03/22 12:29:27;;;;;;;11.65;5.78;;;;;;;;;;6256573;28;20049;-61
2023/03/22 12:32:33;;;;;;;;;;;;;;;;;;6260614;28;20053;-61
2023/03/22 12:35:37;;;;;;;10.00;5.80;;;;;;;;;;6262943;28;19997;-61
2023/03/22 12:38:49;;;;;;;12.65;7.07;;;;;;;;;;6261717;28;20782;-61
2023/03/22 12:41:54;;;;;;;10.90;7.28;;;;;;;;;;6261692;28;20049;-61
2023/03/22 12:45:03;;;;;;;12.18;7.60;;;;;;;;;;6263737;28;20045;-61
2023/03/22 12:48:13;;;;;;;11.63;7.22;;;;;;;;;;6263812;28;20056;-61
2023/03/22 12:51:14;;;;;;;12.40;6.55;;;;;;;;;;6261524;28;20071;-61
2023/03/22 12:54:17;;;;;;;10.97;7.00;;;;;;;;;;6268112;28;20500;-62
2023/03/22 12:57:18;;;;;;;12.18;6.68;;;;;;;;;;6267307;28;20131;-60
2023/03/22 13:00:26;;;;;;;10.90;6.93;;;;;;;;;;6261996;28;21730;-61
2023/03/22 13:03:44;;;;;;;10.00;6.20;;;;;;;;;;6262571;28;20045;-61
2023/03/22 13:06:46;;;;;;;11.43;6.55;;;;;;;;;;6269870;28;20517;-61
2023/03/22 13:09:49;;;;;;;11.85;7.00;;;;;;;;;;6270258;28;20132;-63
2023/03/22 13:13:11;;;;;;;12.95;7.25;;;;;;;;;;6269012;28;20098;-60
2023/03/22 13:16:13;;;;;;;11.77;7.20;;;;;;;;;;6269696;28;20102;-60
2023/03/22 13:19:16;;;;;;;;;;;;;;;;;;6270739;28;20044;-60
2023/03/22 13:22:26;;;;;;;9.30;5.97;;;;;;;;;;6269657;28;19924;-63
2023/03/22 13:25:32;;;;;;;12.40;6.45;;;;;;;;;;6261645;28;20428;-62
2023/03/22 13:28:36;;;;;;;13.20;6.82;;;;;;;;;;6262618;28;20059;-62
2023/03/22 13:31:42;;;;;;;10.20;6.20;;;;;;;;;;6263528;28;20056;-62
2023/03/22 13:34:51;;;;;;;8.65;4.93;;;;;;;;;;6262662;28;20148;-62
2023/03/22 13:38:00;;;;;;;8.90;4.88;;;;;;;;;;6261486;28;20537;-63
2023/03/22 13:41:31;;;;;;;8.75;5.45;;;;;;;;;;6259891;28;20041;-63
2023/03/22 13:44:39;;;;;;;8.48;5.40;;;;;;;;;;6261313;28;20049;-62
2023/03/22 13:47:44;;;;;;;7.68;4.78;;;;;;;;;;6262034;28;20496;-61
2023/03/22 13:50:44;;;;;;;9.63;5.88;;;;;;;;;;6261238;28;20052;-62
2023/03/22 13:54:12;;;;;;;10.88;5.93;;;;;;;;;;6263013;28;20091;-63
2023/03/22 13:57:32;;;;;;;9.77;4.93;;;;;;;;;;6262417;28;20118;-62
2023/03/22 14:00:36;;;;;;;9.63;4.70;;;;;;;;;;6260261;28;20168;-62
2023/03/22 14:03:41;;;;;;;9.00;4.38;;;;;;;;;;6258114;28;20041;-63
2023/03/22 14:07:18;;;;;;;8.10;4.38;;;;;;;;;;6260376;28;20094;-63
2023/03/22 14:10:23;;;;;;;8.10;4.50;;;;;;;;;;6259739;28;20076;-62
2023/03/22 14:13:29;;;;;;;9.98;5.78;;;;;;;;;;6259063;28;20052;-63
2023/03/22 14:16:47;;;;;;;12.93;7.15;;;;;;;;;;6259816;28;20049;-63
2023/03/22 14:19:48;;;;;;;8.73;5.10;;;;;;;;;;6258369;28;20059;-60
2023/03/22 14:22:55;;;;;;;10.40;5.10;;;;;;;;;;6249390;28;20052;-61
2023/03/22 14:26:17;;;;;;;6.60;4.25;;;;;;;;;;6247755;28;20717;-61
2023/03/22 14:29:21;;;;;;;8.20;5.13;;;;;;;;;;6250709;28;20053;-61
2023/03/22 14:32:28;;;;;;;9.27;5.85;;;;;;;;;;6248723;28;20045;-61
2023/03/22 14:35:35;;;;;;;8.68;4.88;;;;;;;;;;6244097;28;20052;-61
2023/03/22 14:38:39;;;;;;;6.95;3.90;;;;;;;;;;6248109;28;20083;-62
2023/03/22 14:42:25;;;;;;;8.27;4.20;;;;;;;;;;6248397;28;20456;-61
2023/03/22 14:45:27;;;;;;;9.38;3.95;;;;;;;;;;6197705;28;20116;-61
2023/03/22 14:48:31;;;;;;;6.85;3.67;;;;;;;;;;6246925;28;20048;-60
2023/03/22 14:51:36;;;;;;;6.93;4.22;;;;;;;;;;6249771;28;20053;-62
2023/03/22 14:54:38;;;;;;;7.28;4.13;;;;;;;;;;6243687;28;20045;-60
2023/03/22 14:57:42;;;;;;;;;;;;;;;;;;6247307;28;20057;-61
2023/03/22 15:00:43;;;;;;;8.30;3.53;;;;;;;;;;6247714;28;20394;-61
2023/03/22 15:03:52;;;;;;;6.65;3.75;;;;;;;;;;6247956;28;20041;-60
2023/03/22 15:06:56;;;;;;;11.25;7.28;;;;;;;;;;6252506;28;20053;-61
2023/03/22 15:10:21;;;;;;;9.20;5.43;;;;;;;;;;6251090;28;20103;-61
2023/03/22 15:13:24;;;;;;;11.32;4.80;;;;;;;;;;6263026;28;20405;-61
2023/03/22 15:16:27;;;;;;;9.32;3.63;;;;;;;;;;6267105;28;20417;-62
2023/03/22 15:19:36;;;;;;;10.40;7.07;;;;;;;;;;6262153;28;20043;-61
2023/03/22 15:22:36;;;;;;;11.15;7.05;;;;;;;;;;6258780;28;20148;-61
2023/03/22 15:25:37;;;;;;;14.43;11.15;;;;;;;;;;6255583;28;20060;-62
2023/03/22 15:28:43;;;;;;;8.95;5.68;;;;;;;;;;6256662;28;20623;-61
2023/03/22 15:31:46;;;;;;;10.25;6.88;;;;;;;;;;6251917;28;20494;-62
2023/03/22 15:34:50;;;;;;;9.60;5.20;;;;;;;;;;6251416;28;20063;-60
2023/03/22 15:37:53;;;;;;;7.82;4.78;;;;;;;;;;6251649;28;20404;-61
2023/03/22 15:40:54;;;;;;;8.35;4.00;;;;;;;;;;6252330;28;20754;-61
2023/03/22 15:44:18;;;;;;;7.45;3.95;;;;;;;;;;6249037;28;20893;-61
2023/03/22 15:47:20;;;;;;;8.38;4.50;;;;;;;;;;6250784;28;20482;-61
2023/03/22 15:50:23;;;;;;;9.00;4.70;;;;;;;;;;6251921;28;20049;-61
2023/03/22 15:53:29;;;;;;;7.47;4.05;;;;;;;;;;6247332;28;20049;-61
2023/03/22 15:56:35;;;;;;;8.52;4.50;;;;;;;;;;6249523;28;20102;-61
2023/03/22 16:00:10;;;;;;;8.45;4.30;;;;;;;;;;6252886;28;20053;-60
2023/03/22 16:03:13;;;;;;;7.22;3.95;;;;;;;;;;6241790;28;20563;-63
2023/03/22 16:06:13;;;;;;;8.95;4.15;;;;;;;;;;6251445;28;20051;-62
2023/03/22 16:09:15;;;;;;;8.35;4.32;;;;;;;;;;6250159;28;21336;-62
2023/03/22 16:12:17;;;;;;;7.03;3.33;;;;;;;;;;6255879;28;20443;-61
2023/03/22 16:15:21;;;;;;;6.40;3.95;;;;;;;;;;6256639;28;20081;-61
2023/03/22 16:18:22;;;;;;;6.82;4.20;;;;;;;;;;6254609;28;20752;-61
2023/03/22 16:21:31;;;;;;;8.90;4.50;;;;;;;;;;6258350;28;20049;-61
2023/03/22 16:24:31;;;;;;;7.53;4.05;;;;;;;;;;6256654;28;20053;-61
2023/03/22 16:27:32;;;;;;;7.00;3.70;;;;;;;;;;6256089;28;20102;-60
2023/03/22 16:30:33;;;;;;;9.00;6.00;;;;;;;;;;6257713;28;20064;-61
2023/03/22 16:33:33;;;;;;;9.85;6.15;;;;;;;;;;6255860;28;20552;-62
2023/03/22 16:36:34;;;;;;;8.65;4.70;;;;;;;;;;6257438;28;20053;-61
2023/03/22 16:39:39;;;;;;;7.10;3.97;;;;;;;;;;6257354;28;20126;-62
2023/03/22 16:42:40;;;;;;;10.65;4.53;;;;;;;;;;6252083;28;20045;-61
2023/03/22 16:45:42;;;;;;;20.95;12.80;;;;;;;;;;6250834;28;20131;-60
2023/03/22 16:48:43;;;;;;;22.60;13.40;;;;;;;;;;6249335;28;20071;-61
2023/03/22 16:51:45;;;;;;;12.53;6.47;;;;;;;;;;6249258;28;20043;-61
2023/03/22 16:54:46;;;;;;;7.32;4.85;;;;;;;;;;6247436;28;20318;-61
2023/03/22 16:57:47;;;;;;;8.73;5.95;;;;;;;;;;6248476;28;20056;-61
2023/03/22 17:00:48;;;;;;;21.77;9.13;;;;;;;;;;6248583;28;21192;-61
2023/03/22 17:03:50;;;;;;;24.87;12.37;;;;;;;;;;6247820;28;20500;-61
2023/03/22 17:06:51;;;;;;;94.90;64.27;;;;;;;;;;6249078;28;20033;-61
2023/03/22 17:09:52;;;;;;;103.63;59.80;;;;;;;;;;6251112;28;20067;-61
2023/03/22 17:12:52;;;;;;;67.82;38.85;;;;;;;;;;6248001;28;21517;-60
2023/03/22 17:15:53;;;;;;;96.88;65.68;;;;;;;;;;6249751;28;20049;-60
2023/03/22 17:18:55;;;;;;;33.88;25.67;;;;;;;;;;6250656;28;21037;-60
2023/03/22 17:21:56;;;;;;;19.27;13.43;;;;;;;;;;6253152;28;20526;-61
2023/03/22 17:24:57;;;;;;;15.10;9.02;;;;;;;;;;6255988;28;20052;-60
2023/03/22 17:27:59;;;;;;;20.48;11.70;;;;;;;;;;6253600;28;20139;-60
2023/03/22 17:31:01;;;;;;;21.75;10.65;;;;;;;;;;6256681;28;20056;-60
2023/03/22 17:34:01;;;;;;;32.05;17.95;;;;;;;;;;6253597;28;20049;-60
2023/03/22 17:37:02;;;;;;;22.58;11.60;;;;;;;;;;6257482;28;20056;-60
2023/03/22 17:40:03;;;;;;;20.50;10.80;;;;;;;;;;6254989;28;20469;-61
2023/03/22 17:43:05;;;;;;;18.08;10.25;;;;;;;;;;6255240;28;20064;-61
2023/03/22 17:46:06;;;;;;;29.20;15.35;;;;;;;;;;6255971;28;20135;-60
2023/03/22 17:49:06;;;;;;;24.70;13.20;;;;;;;;;;6254256;28;20083;-60
2023/03/22 17:52:13;;;;;;;21.60;11.23;;;;;;;;;;6252639;28;20106;-60
2023/03/22 17:55:17;;;;;;;24.85;12.75;;;;;;;;;;6254439;28;20056;-61
2023/03/22 17:58:18;;;;;;;23.25;13.82;;;;;;;;;;6253402;28;20494;-61